createdAt,value
2023-06-23T00:00:22.399Z,160685.69
2023-06-23T00:03:10.970Z,160680.31
2023-06-23T00:05:39.380Z,160673.59
2023-06-23T00:08:07.930Z,160662.88
2023-06-23T00:10:36.211Z,160654.84
2023-06-23T00:13:04.521Z,160644.09
2023-06-23T00:15:33.048Z,160638.78
2023-06-23T00:18:01.772Z,160625.41
2023-06-23T00:20:30.324Z,160625.41
2023-06-23T00:22:58.300Z,160624.06
2023-06-23T00:25:26.275Z,160620.03
2023-06-23T00:27:54.810Z,160621.34
2023-06-23T00:30:23.459Z,160622.69
2023-06-23T00:32:51.791Z,160612.00
2023-06-23T00:35:20.026Z,160606.63
2023-06-23T00:37:47.619Z,160586.53
2023-06-23T00:40:17.459Z,160583.88
2023-06-23T00:42:46.133Z,160579.84
2023-06-23T00:45:14.892Z,160571.81
2023-06-23T00:47:43.857Z,160555.78
2023-06-23T00:50:24.173Z,160541.06
2023-06-23T00:52:53.828Z,160527.66
2023-06-23T00:55:29.361Z,160514.28
2023-06-23T00:57:58.937Z,160504.91
2023-06-23T01:00:29.266Z,160483.50
2023-06-23T01:03:03.337Z,160482.16
2023-06-23T01:05:37.906Z,160475.47
2023-06-23T01:08:34.222Z,160466.06
2023-06-23T01:11:34.621Z,160452.69
2023-06-23T01:14:32.589Z,160446.00
2023-06-23T01:17:06.467Z,160435.31
2023-06-23T01:20:22.646Z,160431.28
2023-06-23T01:23:15.788Z,160429.94
2023-06-23T01:26:01.393Z,160447.38
2023-06-23T01:28:47.945Z,160427.28
2023-06-23T01:31:23.101Z,160439.34
2023-06-23T01:33:57.845Z,160448.69
2023-06-23T01:36:34.459Z,160456.72
2023-06-23T01:39:05.455Z,160455.41
2023-06-23T01:41:38.700Z,160458.06
2023-06-23T01:44:15.605Z,160455.41
2023-06-23T01:46:47.047Z,160451.34
2023-06-23T01:49:18.712Z,160446.00
2023-06-23T01:51:48.670Z,160437.97
2023-06-23T01:54:17.535Z,160395.16
2023-06-23T01:56:45.842Z,160440.69
2023-06-23T01:59:14.656Z,160435.31
2023-06-23T02:01:44.490Z,160424.59
2023-06-23T02:04:15.098Z,160417.88
2023-06-23T02:06:45.536Z,160404.53
2023-06-23T02:09:21.109Z,160405.88
2023-06-23T02:11:49.807Z,160400.50
2023-06-23T02:14:20.738Z,160412.56
2023-06-23T02:16:50.684Z,160415.22
2023-06-23T02:19:20.114Z,160408.53
2023-06-23T02:21:48.810Z,160404.53
2023-06-23T02:24:20.443Z,160403.16
2023-06-23T02:26:49.210Z,160403.16
2023-06-23T02:29:17.271Z,160372.34
2023-06-23T02:31:46.078Z,160393.81
2023-06-23T02:34:14.360Z,160397.84
2023-06-23T02:36:49.665Z,160400.50
2023-06-23T02:39:22.807Z,160450.03
2023-06-23T02:41:53.425Z,160483.50
2023-06-23T02:44:28.173Z,160512.94
2023-06-23T02:46:58.727Z,160530.31
2023-06-23T02:49:30.168Z,160546.41
2023-06-23T02:52:02.626Z,160586.53
2023-06-23T02:54:32.839Z,160614.66
2023-06-23T02:57:00.746Z,160642.78
2023-06-23T02:59:30.048Z,160677.59
2023-06-23T03:01:58.948Z,160692.38
2023-06-23T03:04:27.485Z,160736.59
2023-06-23T03:06:55.340Z,160784.78
2023-06-23T03:09:23.942Z,160830.34
2023-06-23T03:11:51.621Z,160858.47
2023-06-23T03:14:19.616Z,160898.66
2023-06-23T03:16:51.048Z,160929.50
2023-06-23T03:19:38.704Z,160977.78
2023-06-23T03:22:17.213Z,161003.22
2023-06-23T03:24:48.898Z,161042.13
2023-06-23T03:27:17.483Z,161068.94
2023-06-23T03:29:50.044Z,161086.34
2023-06-23T03:32:22.112Z,161115.81
2023-06-23T03:34:55.949Z,161145.28
2023-06-23T03:37:28.225Z,161172.13
2023-06-23T03:40:05.721Z,161201.59
2023-06-23T03:42:37.284Z,161220.41
2023-06-23T03:45:06.855Z,161235.13
2023-06-23T03:47:35.021Z,161282.16
2023-06-23T03:50:22.065Z,161331.75
2023-06-23T03:52:50.523Z,161363.94
2023-06-23T03:55:23.900Z,161389.44
2023-06-23T03:57:51.357Z,161429.69
2023-06-23T04:00:20.704Z,161452.47
2023-06-23T04:02:50.901Z,161459.19
2023-06-23T04:05:19.541Z,161441.72
2023-06-23T04:07:47.987Z,161455.16
2023-06-23T04:10:19.653Z,161451.16
2023-06-23T04:12:48.887Z,161473.94
2023-06-23T04:15:19.703Z,161502.16
2023-06-23T04:17:49.289Z,161496.78
2023-06-23T04:20:18.144Z,161519.59
2023-06-23T04:22:47.637Z,161529.03
2023-06-23T04:25:19.016Z,161557.19
2023-06-23T04:27:52.821Z,161554.47
2023-06-23T04:30:21.916Z,161578.66
2023-06-23T04:32:50.114Z,161598.75
2023-06-23T04:35:18.627Z,161620.22
2023-06-23T04:37:48.749Z,161632.31
2023-06-23T04:40:42.878Z,161641.69
2023-06-23T04:43:33.323Z,161668.56
2023-06-23T04:46:20.087Z,161747.78
2023-06-23T04:48:52.396Z,161817.59
2023-06-23T04:51:23.225Z,161886.09
2023-06-23T04:53:54.856Z,161943.84
2023-06-23T04:56:24.999Z,161976.16
2023-06-23T04:58:57.342Z,162027.19
2023-06-23T05:01:26.758Z,162080.88
2023-06-23T05:03:55.454Z,162125.25
2023-06-23T05:06:24.348Z,162181.75
2023-06-23T05:08:53.028Z,162213.97
2023-06-23T05:11:22.214Z,162248.91
2023-06-23T05:13:50.442Z,162293.25
2023-06-23T05:16:19.681Z,162291.91
2023-06-23T05:18:48.048Z,162252.97
2023-06-23T05:21:17.752Z,162242.19
2023-06-23T05:23:52.947Z,162223.34
2023-06-23T05:26:22.960Z,162219.34
2023-06-23T05:28:51.872Z,162196.53
2023-06-23T05:31:21.623Z,162197.84
2023-06-23T05:33:50.080Z,162208.56
2023-06-23T05:36:21.624Z,162242.19
2023-06-23T05:38:50.368Z,162273.06
2023-06-23T05:41:18.303Z,162317.47
2023-06-23T05:43:46.536Z,162356.41
2023-06-23T05:46:16.609Z,162398.16
2023-06-23T05:48:52.367Z,162455.97
2023-06-23T05:51:30.329Z,162494.97
2023-06-23T05:54:00.981Z,162543.38
2023-06-23T05:56:53.335Z,162560.84
2023-06-23T05:59:25.922Z,162594.53
2023-06-23T06:01:58.555Z,162593.16
2023-06-23T06:04:29.278Z,162603.94
2023-06-23T06:06:58.867Z,162625.44
2023-06-23T06:09:29.648Z,162657.75
2023-06-23T06:11:58.979Z,162645.63
2023-06-23T06:14:29.331Z,162616.06
2023-06-23T06:16:58.044Z,162603.94
2023-06-23T06:19:26.998Z,162612.00
2023-06-23T06:21:57.004Z,162608.00
2023-06-23T06:24:25.102Z,162601.25
2023-06-23T06:26:58.492Z,162568.91
2023-06-23T06:29:27.260Z,162606.59
2023-06-23T06:31:56.264Z,162609.31
2023-06-23T06:34:25.771Z,162605.28
2023-06-23T06:36:56.239Z,162579.69
2023-06-23T06:39:24.479Z,162547.41
2023-06-23T06:41:53.782Z,162536.66
2023-06-23T06:44:24.670Z,162523.22
2023-06-23T06:46:54.083Z,162543.38
2023-06-23T06:49:23.835Z,162542.00
2023-06-23T06:51:53.548Z,162566.25
2023-06-23T06:54:21.474Z,162566.25
2023-06-23T06:56:50.424Z,162583.69
2023-06-23T06:59:18.621Z,162589.09
2023-06-23T07:01:47.908Z,162589.09
2023-06-23T07:04:16.088Z,162579.69
2023-06-23T07:06:44.546Z,162566.25
2023-06-23T07:09:12.371Z,162598.53
2023-06-23T07:11:40.446Z,162612.00
2023-06-23T07:14:08.097Z,162593.16
2023-06-23T07:16:36.384Z,162617.38
2023-06-23T07:19:04.254Z,162620.06
2023-06-23T07:21:33.966Z,162633.50
2023-06-23T07:24:02.464Z,162629.50
2023-06-23T07:26:30.627Z,162657.75
2023-06-23T07:28:58.401Z,162656.38
2023-06-23T07:31:27.197Z,162661.75
2023-06-23T07:33:55.355Z,162659.09
2023-06-23T07:36:23.342Z,162653.69
2023-06-23T07:38:51.158Z,162636.25
2023-06-23T07:41:19.614Z,162656.38
2023-06-23T07:43:47.359Z,162661.75
2023-06-23T07:46:15.524Z,162679.28
2023-06-23T07:48:43.576Z,162679.28
2023-06-23T07:51:11.756Z,162669.81
2023-06-23T07:53:39.870Z,162671.22
2023-06-23T07:56:08.140Z,162665.81
2023-06-23T07:58:35.860Z,162671.22
2023-06-23T08:01:04.386Z,162649.69
2023-06-23T08:03:32.354Z,162621.44
2023-06-23T08:06:00.860Z,162614.72
2023-06-23T08:08:28.644Z,162582.38
2023-06-23T08:10:57.509Z,162586.41
2023-06-23T08:13:26.008Z,162586.41
2023-06-23T08:15:56.859Z,162568.91
2023-06-23T08:18:25.022Z,162550.13
2023-06-23T08:20:53.567Z,162554.13
2023-06-23T08:23:21.946Z,162536.66
2023-06-23T08:25:50.095Z,162542.00
2023-06-23T08:28:17.994Z,162528.56
2023-06-23T08:30:46.568Z,162527.22
2023-06-23T08:33:14.506Z,162515.16
2023-06-23T08:35:42.934Z,162498.97
2023-06-23T08:38:14.532Z,162480.19
2023-06-23T08:40:43.425Z,162461.34
2023-06-23T08:43:11.612Z,162427.72
2023-06-23T08:45:44.638Z,162418.31
2023-06-23T08:48:13.329Z,162384.66
2023-06-23T08:50:41.543Z,162363.16
2023-06-23T08:53:11.696Z,162336.25
2023-06-23T08:55:40.432Z,162306.69
2023-06-23T08:58:08.406Z,162256.97
2023-06-23T09:00:38.331Z,162224.75
2023-06-23T09:03:06.871Z,162205.91
2023-06-23T09:05:35.531Z,162183.06
2023-06-23T09:08:03.704Z,162179.03
2023-06-23T09:10:37.691Z,162134.66
2023-06-23T09:13:49.777Z,162082.25
2023-06-23T09:16:44.985Z,162058.06
2023-06-23T09:19:48.484Z,162029.84
2023-06-23T09:22:20.856Z,161994.91
2023-06-23T09:24:49.735Z,161945.16
2023-06-23T09:27:18.226Z,161941.16
2023-06-23T09:30:00.801Z,161943.84
2023-06-23T09:32:44.666Z,161949.22
2023-06-23T09:35:19.993Z,161961.38
2023-06-23T09:37:49.056Z,161957.31
2023-06-23T09:40:27.046Z,161969.44
2023-06-23T09:43:12.653Z,161965.38
2023-06-23T09:45:42.246Z,161982.88
2023-06-23T09:48:19.865Z,161980.16
2023-06-23T09:51:00.353Z,161998.97
2023-06-23T09:53:33.168Z,162002.97
2023-06-23T09:56:02.519Z,161990.91
2023-06-23T09:58:37.646Z,161982.88
2023-06-23T10:01:12.864Z,161973.44
2023-06-23T10:03:55.437Z,161961.38
2023-06-23T10:06:33.884Z,161946.50
2023-06-23T10:09:05.712Z,161941.16
2023-06-23T10:11:35.723Z,161955.94
2023-06-23T10:14:07.614Z,161964.03
2023-06-23T10:16:37.678Z,161973.44
2023-06-23T10:19:06.713Z,162017.75
2023-06-23T10:21:35.305Z,162052.66
2023-06-23T10:24:07.238Z,162090.31
2023-06-23T10:26:37.429Z,162133.31
2023-06-23T10:29:08.579Z,162146.75
2023-06-23T10:31:37.816Z,162160.19
2023-06-23T10:34:07.304Z,162169.59
2023-06-23T10:36:38.100Z,162172.25
2023-06-23T10:39:07.166Z,162174.97
2023-06-23T10:41:35.686Z,162169.59
2023-06-23T10:44:04.666Z,162134.66
2023-06-23T10:46:33.556Z,162115.81
2023-06-23T10:49:04.962Z,162142.69
2023-06-23T10:51:33.230Z,162157.47
2023-06-23T10:54:06.544Z,162197.84
2023-06-23T10:56:45.080Z,162236.78
2023-06-23T10:59:30.604Z,162304.03
2023-06-23T11:02:02.027Z,162347.03
2023-06-23T11:04:40.592Z,162373.94
2023-06-23T11:07:14.340Z,162429.06
2023-06-23T11:09:56.978Z,162509.75
2023-06-23T11:12:31.357Z,162546.06
2023-06-23T11:15:22.937Z,162593.16
2023-06-23T11:17:52.807Z,162629.50
2023-06-23T11:20:21.035Z,162664.47
2023-06-23T11:23:08.773Z,162718.25
2023-06-23T11:25:49.084Z,162738.44
2023-06-23T11:28:39.318Z,162788.22
2023-06-23T11:31:29.149Z,162799.06
2023-06-23T11:33:57.170Z,162820.59
2023-06-23T11:36:27.274Z,162852.84
2023-06-23T11:38:57.186Z,162897.25
2023-06-23T11:41:32.250Z,162926.91
2023-06-23T11:44:03.552Z,162936.31
2023-06-23T11:46:35.510Z,162963.22
2023-06-23T11:49:13.729Z,162943.03
2023-06-23T11:51:42.433Z,162996.91
2023-06-23T11:54:10.312Z,163042.69
2023-06-23T11:56:42.926Z,163069.63
2023-06-23T11:59:12.581Z,163058.81
2023-06-23T12:01:41.152Z,163093.84
2023-06-23T12:04:09.221Z,163169.25
2023-06-23T12:06:37.766Z,163200.25
2023-06-23T12:09:07.438Z,163193.50
2023-06-23T12:11:39.024Z,163143.66
2023-06-23T12:14:06.955Z,163066.91
2023-06-23T12:16:39.020Z,163052.09
2023-06-23T12:19:07.434Z,163142.31
2023-06-23T12:21:40.805Z,163144.97
2023-06-23T12:24:11.710Z,163112.69
2023-06-23T12:26:43.325Z,163139.59
2023-06-23T12:29:12.960Z,163178.72
2023-06-23T12:31:41.696Z,163213.72
2023-06-23T12:34:11.631Z,163275.69
2023-06-23T12:36:41.330Z,163285.09
2023-06-23T12:39:13.759Z,163272.97
2023-06-23T12:41:42.588Z,163252.75
2023-06-23T12:44:12.882Z,163250.09
2023-06-23T12:46:42.985Z,163220.47
2023-06-23T12:49:12.737Z,163229.88
2023-06-23T12:51:41.411Z,163193.50
2023-06-23T12:54:09.397Z,163209.66
2023-06-23T12:56:38.386Z,163221.78
2023-06-23T12:59:06.176Z,163266.22
2023-06-23T13:01:35.139Z,163237.94
2023-06-23T13:04:02.977Z,163301.25
2023-06-23T13:06:31.405Z,163353.84
2023-06-23T13:09:01.106Z,163306.66
2023-06-23T13:11:29.438Z,163285.09
2023-06-23T13:13:57.668Z,163235.28
2023-06-23T13:16:25.788Z,163277.03
2023-06-23T13:18:53.549Z,163282.44
2023-06-23T13:21:21.863Z,163270.28
2023-06-23T13:23:49.762Z,163291.84
2023-06-23T13:26:18.355Z,163320.13
2023-06-23T13:28:46.125Z,163359.22
2023-06-23T13:31:14.513Z,163370.00
2023-06-23T13:33:42.593Z,163341.66
2023-06-23T13:36:10.630Z,163318.78
2023-06-23T13:38:38.647Z,163349.75
2023-06-23T13:41:07.249Z,163380.75
2023-06-23T13:43:34.934Z,163429.25
2023-06-23T13:46:03.179Z,163480.44
2023-06-23T13:48:31.185Z,163526.28
2023-06-23T13:51:00.592Z,163550.56
2023-06-23T13:53:28.683Z,163499.34
2023-06-23T13:55:56.939Z,163551.91
2023-06-23T13:58:25.179Z,163565.38
2023-06-23T14:00:54.724Z,163535.75
2023-06-23T14:03:22.693Z,163522.22
2023-06-23T14:05:53.845Z,163511.47
2023-06-23T14:08:22.956Z,163498.00
2023-06-23T14:10:51.327Z,163492.59
2023-06-23T14:13:19.543Z,163484.50
2023-06-23T14:15:47.513Z,163437.34
2023-06-23T14:18:16.036Z,163387.50
2023-06-23T14:20:46.061Z,163391.56
2023-06-23T14:23:14.571Z,163334.94
2023-06-23T14:25:43.392Z,163291.84
2023-06-23T14:28:11.301Z,163294.50
2023-06-23T14:30:39.815Z,163309.31
2023-06-23T14:33:07.884Z,163278.34
2023-06-23T14:35:36.766Z,163217.72
2023-06-23T14:38:07.172Z,163204.31
2023-06-23T14:40:36.034Z,163165.19
2023-06-23T14:43:04.444Z,163153.06
2023-06-23T14:45:40.047Z,163177.38
2023-06-23T14:48:09.049Z,163171.97
2023-06-23T14:50:38.273Z,163161.19
2023-06-23T14:53:05.530Z,163159.78
2023-06-23T14:55:34.728Z,163136.91
2023-06-23T14:58:04.527Z,163130.19
2023-06-23T15:00:33.404Z,163142.31
2023-06-23T15:03:01.400Z,163146.31
2023-06-23T15:05:30.684Z,163131.53
2023-06-23T15:07:58.748Z,163138.25
2023-06-23T15:10:28.138Z,163123.44
2023-06-23T15:12:55.990Z,163118.03
2023-06-23T15:15:24.084Z,163140.97
2023-06-23T15:17:52.395Z,163139.59
2023-06-23T15:20:21.115Z,163123.44
2023-06-23T15:22:48.994Z,163104.63
2023-06-23T15:25:17.047Z,163080.38
2023-06-23T15:27:45.225Z,163076.34
2023-06-23T15:30:14.245Z,163065.56
2023-06-23T15:32:42.026Z,163044.03
2023-06-23T15:35:10.614Z,163054.81
2023-06-23T15:37:42.414Z,163049.41
2023-06-23T15:40:12.300Z,163074.97
2023-06-23T15:42:41.034Z,163099.22
2023-06-23T15:45:10.451Z,163123.44
2023-06-23T15:47:38.251Z,163128.84
2023-06-23T15:50:06.963Z,163130.19
2023-06-23T15:52:35.371Z,163136.91
2023-06-23T15:55:04.131Z,163136.91
2023-06-23T15:57:31.885Z,163151.72
2023-06-23T16:00:00.094Z,163158.47
2023-06-23T16:02:28.339Z,163158.47
2023-06-23T16:04:56.983Z,163111.38
2023-06-23T16:07:24.825Z,163120.78
2023-06-23T16:09:55.395Z,163114.03
2023-06-23T16:12:22.631Z,163112.69
2023-06-23T16:14:50.927Z,163077.69
2023-06-23T16:17:18.583Z,163081.69
2023-06-23T16:19:46.474Z,163053.44
2023-06-23T16:22:14.194Z,163034.63
2023-06-23T16:24:42.103Z,163002.28
2023-06-23T16:27:09.741Z,163013.09
2023-06-23T16:29:37.560Z,162990.16
2023-06-23T16:32:06.015Z,162967.25
2023-06-23T16:34:33.882Z,162934.97
2023-06-23T16:37:01.654Z,162916.09
2023-06-23T16:39:29.811Z,162886.50
2023-06-23T16:42:00.029Z,162882.44
2023-06-23T16:44:28.181Z,162873.03
2023-06-23T16:46:56.217Z,162843.44
2023-06-23T16:49:24.933Z,162815.19
2023-06-23T16:51:52.599Z,162824.59
2023-06-23T16:54:20.655Z,162820.59
2023-06-23T16:56:48.652Z,162801.75
2023-06-23T16:59:17.037Z,162803.06
2023-06-23T17:01:45.097Z,162805.78
2023-06-23T17:04:16.331Z,162795.00
2023-06-23T17:06:44.847Z,162800.41
2023-06-23T17:09:13.290Z,162795.00
2023-06-23T17:11:41.288Z,162776.09
2023-06-23T17:14:10.181Z,162766.69
2023-06-23T17:16:38.694Z,162742.50
2023-06-23T17:19:06.808Z,162733.06
2023-06-23T17:21:34.607Z,162720.97
2023-06-23T17:24:03.063Z,162720.97
2023-06-23T17:26:32.964Z,162722.31
2023-06-23T17:29:01.137Z,162731.72
2023-06-23T17:31:29.354Z,162730.38
2023-06-23T17:33:57.774Z,162726.31
2023-06-23T17:36:25.912Z,162723.66
2023-06-23T17:38:54.364Z,162671.22
2023-06-23T17:41:22.316Z,162624.13
2023-06-23T17:43:50.782Z,162574.31
2023-06-23T17:46:18.708Z,162560.84
2023-06-23T17:48:47.263Z,162523.22
2023-06-23T17:51:15.096Z,162485.53
2023-06-23T17:53:42.950Z,162465.41
2023-06-23T17:56:11.129Z,162439.84
2023-06-23T17:58:39.077Z,162414.28
2023-06-23T18:01:06.806Z,162380.66
2023-06-23T18:03:35.942Z,162380.66
2023-06-23T18:06:04.309Z,162377.94
2023-06-23T18:08:32.459Z,162371.22
2023-06-23T18:11:00.409Z,162347.03
2023-06-23T18:13:28.706Z,162299.97
2023-06-23T18:15:56.550Z,162318.81
2023-06-23T18:18:25.273Z,162283.84
2023-06-23T18:20:53.649Z,162289.25
2023-06-23T18:23:21.965Z,162286.53
2023-06-23T18:25:49.741Z,162274.47
2023-06-23T18:28:17.833Z,162244.91
2023-06-23T18:30:45.800Z,162239.50
2023-06-23T18:33:14.314Z,162227.41
2023-06-23T18:35:42.172Z,162191.13
2023-06-23T18:38:10.921Z,162172.25
2023-06-23T18:40:38.708Z,162154.81
2023-06-23T18:43:07.384Z,162134.66
2023-06-23T18:45:35.191Z,162109.09
2023-06-23T18:48:03.872Z,162064.78
2023-06-23T18:50:32.339Z,162052.66
2023-06-23T18:53:01.277Z,161990.91
2023-06-23T18:55:29.358Z,162028.50
2023-06-23T18:57:57.663Z,161994.91
2023-06-23T19:00:25.538Z,161984.19
2023-06-23T19:02:54.163Z,161968.03
2023-06-23T19:05:22.671Z,161968.03
2023-06-23T19:07:52.648Z,161953.22
2023-06-23T19:10:20.738Z,161939.84
2023-06-23T19:12:51.020Z,161925.03
2023-06-23T19:15:20.150Z,161865.94
2023-06-23T19:17:48.560Z,161844.47
2023-06-23T19:20:17.124Z,161820.31
2023-06-23T19:22:45.584Z,161800.16
2023-06-23T19:25:13.578Z,161782.69
2023-06-23T19:27:42.145Z,161766.59
2023-06-23T19:30:10.501Z,161761.22
2023-06-23T19:32:38.630Z,161745.13
2023-06-23T19:35:06.649Z,161746.44
2023-06-23T19:37:35.177Z,161734.41
2023-06-23T19:40:04.060Z,161723.59
2023-06-23T19:42:32.441Z,161735.75
2023-06-23T19:45:00.627Z,161712.81
2023-06-23T19:47:29.188Z,161703.44
2023-06-23T19:49:56.909Z,161688.69
2023-06-23T19:52:26.582Z,161683.31
2023-06-23T19:54:56.558Z,161681.97
2023-06-23T19:57:24.708Z,161656.50
2023-06-23T19:59:52.844Z,161684.69
2023-06-23T20:02:22.277Z,161683.31
2023-06-23T20:04:53.183Z,161680.63
2023-06-23T20:07:22.848Z,161684.69
2023-06-23T20:09:51.066Z,161680.63
2023-06-23T20:12:19.133Z,161681.97
2023-06-23T20:14:49.214Z,161677.97
2023-06-23T20:17:19.350Z,161683.31
2023-06-23T20:19:49.060Z,161692.75
2023-06-23T20:22:17.688Z,161680.63
2023-06-23T20:24:45.480Z,161680.63
2023-06-23T20:27:13.985Z,161690.03
2023-06-23T20:29:42.010Z,161665.88
2023-06-23T20:32:12.830Z,161664.53
2023-06-23T20:34:42.227Z,161653.78
2023-06-23T20:37:10.519Z,161640.38
2023-06-23T20:39:38.599Z,161639.03
2023-06-23T20:42:07.233Z,161641.69
2023-06-23T20:44:36.220Z,161643.06
2023-06-23T20:47:04.930Z,161621.59
2023-06-23T20:49:32.996Z,161632.31
2023-06-23T20:52:01.290Z,161641.69
2023-06-23T20:54:29.441Z,161639.03
2023-06-23T20:56:57.674Z,161649.78
2023-06-23T20:59:28.355Z,161656.50
2023-06-23T21:01:56.981Z,161657.84
2023-06-23T21:04:24.945Z,161659.16
2023-06-23T21:06:54.374Z,161665.88
2023-06-23T21:09:22.467Z,161659.16
2023-06-23T21:11:50.973Z,161665.88
2023-06-23T21:14:18.791Z,161659.16
2023-06-23T21:16:46.985Z,161671.25
2023-06-23T21:19:14.785Z,161667.22
2023-06-23T21:21:43.180Z,161668.56
2023-06-23T21:24:11.167Z,161667.22
2023-06-23T21:26:39.702Z,161648.41
2023-06-23T21:31:36.546Z,161660.50
2023-06-23T21:34:04.882Z,161657.84
2023-06-23T21:36:33.610Z,161651.13
2023-06-23T21:39:01.465Z,161643.06
2023-06-23T21:41:30.077Z,161637.69
2023-06-23T21:43:57.835Z,161628.31
2023-06-23T21:46:26.380Z,161613.50
2023-06-23T21:48:58.374Z,161620.22
2023-06-23T21:51:26.841Z,161628.31
2023-06-23T21:53:54.731Z,161630.97
2023-06-23T21:56:23.427Z,161636.38
2023-06-23T21:58:51.991Z,161633.66
2023-06-23T22:01:22.147Z,161637.69
2023-06-23T22:03:50.706Z,161633.66
2023-06-23T22:06:19.769Z,161613.50
2023-06-23T22:08:47.473Z,161604.13
2023-06-23T22:11:15.753Z,161592.03
2023-06-23T22:13:43.598Z,161589.38
2023-06-23T22:16:12.392Z,161575.94
2023-06-23T22:18:49.765Z,161559.88
2023-06-23T22:21:21.651Z,161546.44
2023-06-23T22:23:49.694Z,161516.94
2023-06-23T22:26:18.477Z,161498.13
2023-06-23T22:28:45.925Z,161484.66
2023-06-23T22:31:15.642Z,161491.41
2023-06-23T22:33:43.834Z,161483.31
2023-06-23T22:36:12.608Z,161477.94
2023-06-23T22:38:40.453Z,161455.16
2023-06-23T22:41:08.700Z,161469.91
2023-06-23T22:43:36.458Z,161472.63
2023-06-23T22:46:04.669Z,161453.81
2023-06-23T22:48:32.662Z,161452.47
2023-06-23T22:51:01.034Z,161432.34
2023-06-23T22:53:28.759Z,161433.69
2023-06-23T22:55:57.409Z,161431.03
2023-06-23T22:58:25.127Z,161416.28
2023-06-23T23:00:53.938Z,161408.19
2023-06-23T23:03:21.881Z,161389.44
2023-06-23T23:05:50.589Z,161398.81
2023-06-23T23:08:18.592Z,161388.09
2023-06-23T23:10:47.018Z,161386.72
2023-06-23T23:13:14.834Z,161394.81
2023-06-23T23:15:42.551Z,161386.72
2023-06-23T23:18:10.322Z,161382.72
2023-06-23T23:20:38.885Z,161376.00
2023-06-23T23:23:07.184Z,161377.34
2023-06-23T23:25:35.356Z,161381.38
2023-06-23T23:28:04.196Z,161374.69
2023-06-23T23:30:35.903Z,161367.97
2023-06-23T23:33:04.005Z,161370.63
2023-06-23T23:35:32.994Z,161380.06
2023-06-23T23:38:01.760Z,161393.44
